sensor_id;sensor_type;location;lat;lon;timestamp;pressure;altitude;pressure_sealevel;temperature
37452;BMP280;23314;51.114;6.900;2022-07-23T00:00:14;101502.66;;;18.31
37452;BMP280;23314;51.114;6.900;2022-07-23T00:02:40;101502.66;;;18.31
37452;BMP280;23314;51.114;6.900;2022-07-23T00:05:05;101501.59;;;18.29
37452;BMP280;23314;51.114;6.900;2022-07-23T00:07:30;101510.28;;;18.23
37452;BMP280;23314;51.114;6.900;2022-07-23T00:09:56;101512.66;;;18.21
37452;BMP280;23314;51.114;6.900;2022-07-23T00:12:21;101506.97;;;18.29
37452;BMP280;23314;51.114;6.900;2022-07-23T00:14:46;101500.28;;;18.33
37452;BMP280;23314;51.114;6.900;2022-07-23T00:17:12;101499.41;;;18.36
37452;BMP280;23314;51.114;6.900;2022-07-23T00:19:37;101495.03;;;18.39
37452;BMP280;23314;51.114;6.900;2022-07-23T00:22:03;101502.41;;;18.38
37452;BMP280;23314;51.114;6.900;2022-07-23T00:24:28;101504.34;;;18.38
37452;BMP280;23314;51.114;6.900;2022-07-23T00:26:54;101506.00;;;18.35
37452;BMP280;23314;51.114;6.900;2022-07-23T00:29:19;101501.47;;;18.32
37452;BMP280;23314;51.114;6.900;2022-07-23T00:31:44;101497.41;;;18.28
37452;BMP280;23314;51.114;6.900;2022-07-23T00:34:09;101503.84;;;18.30
37452;BMP280;23314;51.114;6.900;2022-07-23T00:36:35;101493.19;;;18.27
37452;BMP280;23314;51.114;6.900;2022-07-23T00:39:00;101495.25;;;18.22
37452;BMP280;23314;51.114;6.900;2022-07-23T00:41:25;101492.22;;;18.20
37452;BMP280;23314;51.114;6.900;2022-07-23T00:43:51;101492.22;;;18.20
37452;BMP280;23314;51.114;6.900;2022-07-23T00:46:20;101493.63;;;18.25
37452;BMP280;23314;51.114;6.900;2022-07-23T00:48:45;101491.66;;;18.26
37452;BMP280;23314;51.114;6.900;2022-07-23T00:51:11;101499.97;;;18.31
37452;BMP280;23314;51.114;6.900;2022-07-23T00:53:36;101502.97;;;18.33
37452;BMP280;23314;51.114;6.900;2022-07-23T00:56:02;101493.56;;;18.38
37452;BMP280;23314;51.114;6.900;2022-07-23T00:58:27;101503.63;;;18.37
37452;BMP280;23314;51.114;6.900;2022-07-23T01:00:52;101493.56;;;18.38
37452;BMP280;23314;51.114;6.900;2022-07-23T01:03:18;101493.56;;;18.38
37452;BMP280;23314;51.114;6.900;2022-07-23T01:05:44;101497.19;;;18.44
37452;BMP280;23314;51.114;6.900;2022-07-23T01:08:09;101490.25;;;18.43
37452;BMP280;23314;51.114;6.900;2022-07-23T01:10:35;101484.22;;;18.39
37452;BMP280;23314;51.114;6.900;2022-07-23T01:13:09;101484.81;;;18.34
37452;BMP280;23314;51.114;6.900;2022-07-23T01:15:36;101488.88;;;18.38
37452;BMP280;23314;51.114;6.900;2022-07-23T01:18:03;101488.66;;;18.46
37452;BMP280;23314;51.114;6.900;2022-07-23T01:20:29;101487.00;;;18.48
37452;BMP280;23314;51.114;6.900;2022-07-23T01:22:55;101489.56;;;18.52
37452;BMP280;23314;51.114;6.900;2022-07-23T01:25:20;101491.84;;;18.53
37452;BMP280;23314;51.114;6.900;2022-07-23T01:27:48;101498.44;;;18.52
37452;BMP280;23314;51.114;6.900;2022-07-23T01:30:14;101496.16;;;18.51
37452;BMP280;23314;51.114;6.900;2022-07-23T01:32:40;101499.94;;;18.53
37452;BMP280;23314;51.114;6.900;2022-07-23T01:35:06;101505.22;;;18.57
37452;BMP280;23314;51.114;6.900;2022-07-23T01:37:32;101499.38;;;18.58
37452;BMP280;23314;51.114;6.900;2022-07-23T01:39:57;101491.28;;;18.58
37452;BMP280;23314;51.114;6.900;2022-07-23T01:42:23;101489.78;;;18.57
37452;BMP280;23314;51.114;6.900;2022-07-23T01:44:48;101492.56;;;18.54
37452;BMP280;23314;51.114;6.900;2022-07-23T01:47:14;101494.38;;;18.48
37452;BMP280;23314;51.114;6.900;2022-07-23T01:49:39;101483.81;;;18.40
37452;BMP280;23314;51.114;6.900;2022-07-23T01:52:04;101482.13;;;18.34
37452;BMP280;23314;51.114;6.900;2022-07-23T01:54:34;101477.13;;;18.23
37452;BMP280;23314;51.114;6.900;2022-07-23T01:57:00;101469.56;;;18.18
37452;BMP280;23314;51.114;6.900;2022-07-23T01:59:26;101488.72;;;18.11
37452;BMP280;23314;51.114;6.900;2022-07-23T02:01:52;101480.13;;;18.03
37452;BMP280;23314;51.114;6.900;2022-07-23T02:04:18;101476.47;;;17.97
37452;BMP280;23314;51.114;6.900;2022-07-23T02:06:44;101478.66;;;17.89
37452;BMP280;23314;51.114;6.900;2022-07-23T02:09:09;101477.69;;;17.83
37452;BMP280;23314;51.114;6.900;2022-07-23T02:11:34;101482.16;;;17.77
37452;BMP280;23314;51.114;6.900;2022-07-23T02:14:00;101480.75;;;17.72
37452;BMP280;23314;51.114;6.900;2022-07-23T02:16:25;101481.31;;;17.67
37452;BMP280;23314;51.114;6.900;2022-07-23T02:18:50;101479.19;;;17.62
37452;BMP280;23314;51.114;6.900;2022-07-23T02:21:15;101478.94;;;17.56
37452;BMP280;23314;51.114;6.900;2022-07-23T02:23:41;101482.97;;;17.51
37452;BMP280;23314;51.114;6.900;2022-07-23T02:26:06;101478.88;;;17.47
37452;BMP280;23314;51.114;6.900;2022-07-23T02:28:32;101468.19;;;17.43
37452;BMP280;23314;51.114;6.900;2022-07-23T02:30:57;101474.03;;;17.42
37452;BMP280;23314;51.114;6.900;2022-07-23T02:33:22;101470.25;;;17.39
37452;BMP280;23314;51.114;6.900;2022-07-23T02:35:48;101472.66;;;17.37
37452;BMP280;23314;51.114;6.900;2022-07-23T02:38:13;101471.88;;;17.36
37452;BMP280;23314;51.114;6.900;2022-07-23T02:40:38;101478.44;;;17.35
37452;BMP280;23314;51.114;6.900;2022-07-23T02:43:04;101485.91;;;17.31
37452;BMP280;23314;51.114;6.900;2022-07-23T02:45:29;101486.34;;;17.30
37452;BMP280;23314;51.114;6.900;2022-07-23T02:47:54;101473.72;;;17.27
37452;BMP280;23314;51.114;6.900;2022-07-23T02:50:20;101486.88;;;17.25
37452;BMP280;23314;51.114;6.900;2022-07-23T02:52:45;101485.03;;;17.21
37452;BMP280;23314;51.114;6.900;2022-07-23T02:55:10;101477.81;;;17.18
37452;BMP280;23314;51.114;6.900;2022-07-23T02:57:36;101482.13;;;17.16
37452;BMP280;23314;51.114;6.900;2022-07-23T03:00:04;101477.19;;;17.14
37452;BMP280;23314;51.114;6.900;2022-07-23T03:02:29;101480.63;;;17.15
37452;BMP280;23314;51.114;6.900;2022-07-23T03:04:55;101482.97;;;17.13
37452;BMP280;23314;51.114;6.900;2022-07-23T03:07:20;101473.84;;;17.10
37452;BMP280;23314;51.114;6.900;2022-07-23T03:09:46;101474.25;;;17.09
37452;BMP280;23314;51.114;6.900;2022-07-23T03:12:12;101473.19;;;17.06
37452;BMP280;23314;51.114;6.900;2022-07-23T03:14:37;101479.03;;;17.04
37452;BMP280;23314;51.114;6.900;2022-07-23T03:17:02;101477.94;;;17.02
37452;BMP280;23314;51.114;6.900;2022-07-23T03:19:28;101484.16;;;16.99
37452;BMP280;23314;51.114;6.900;2022-07-23T03:21:53;101476.09;;;16.99
37452;BMP280;23314;51.114;6.900;2022-07-23T03:24:18;101483.53;;;16.95
37452;BMP280;23314;51.114;6.900;2022-07-23T03:26:44;101475.44;;;16.95
37452;BMP280;23314;51.114;6.900;2022-07-23T03:29:10;101482.03;;;16.94
37452;BMP280;23314;51.114;6.900;2022-07-23T03:31:36;101481.72;;;16.92
37452;BMP280;23314;51.114;6.900;2022-07-23T03:34:01;101480.53;;;16.93
37452;BMP280;23314;51.114;6.900;2022-07-23T03:36:27;101492.50;;;16.92
37452;BMP280;23314;51.114;6.900;2022-07-23T03:38:53;101489.81;;;16.92
37452;BMP280;23314;51.114;6.900;2022-07-23T03:41:19;101487.13;;;16.92
37452;BMP280;23314;51.114;6.900;2022-07-23T03:43:45;101487.84;;;16.92
37452;BMP280;23314;51.114;6.900;2022-07-23T03:46:10;101487.84;;;16.92
37452;BMP280;23314;51.114;6.900;2022-07-23T03:48:36;101482.13;;;16.90
37452;BMP280;23314;51.114;6.900;2022-07-23T03:51:01;101477.81;;;16.93
37452;BMP280;23314;51.114;6.900;2022-07-23T03:53:26;101477.41;;;16.94
37452;BMP280;23314;51.114;6.900;2022-07-23T03:55:52;101475.03;;;16.96
37452;BMP280;23314;51.114;6.900;2022-07-23T03:58:17;101472.34;;;16.96
37452;BMP280;23314;51.114;6.900;2022-07-23T04:00:43;101483.13;;;16.96
37452;BMP280;23314;51.114;6.900;2022-07-23T04:03:08;101487.66;;;16.99
37452;BMP280;23314;51.114;6.900;2022-07-23T04:05:33;101490.97;;;17.03
37452;BMP280;23314;51.114;6.900;2022-07-23T04:07:59;101491.31;;;17.06
37452;BMP280;23314;51.114;6.900;2022-07-23T04:10:24;101485.03;;;17.09
37452;BMP280;23314;51.114;6.900;2022-07-23T04:12:49;101488.06;;;17.11
37452;BMP280;23314;51.114;6.900;2022-07-23T04:15:15;101484.97;;;17.12
37452;BMP280;23314;51.114;6.900;2022-07-23T04:17:40;101489.50;;;17.15
37452;BMP280;23314;51.114;6.900;2022-07-23T04:20:05;101494.31;;;17.20
37452;BMP280;23314;51.114;6.900;2022-07-23T04:22:31;101490.75;;;17.24
37452;BMP280;23314;51.114;6.900;2022-07-23T04:24:56;101493.38;;;17.27
37452;BMP280;23314;51.114;6.900;2022-07-23T04:27:21;101499.38;;;17.31
37452;BMP280;23314;51.114;6.900;2022-07-23T04:29:47;101490.00;;;17.36
37452;BMP280;23314;51.114;6.900;2022-07-23T04:32:12;101498.31;;;17.42
37452;BMP280;23314;51.114;6.900;2022-07-23T04:34:37;101501.97;;;17.48
37452;BMP280;23314;51.114;6.900;2022-07-23T04:37:03;101504.63;;;17.74
37452;BMP280;23314;51.114;6.900;2022-07-23T04:39:28;101511.00;;;18.02
37452;BMP280;23314;51.114;6.900;2022-07-23T04:41:54;101504.13;;;18.23
37452;BMP280;23314;51.114;6.900;2022-07-23T04:44:19;101512.34;;;18.42
37452;BMP280;23314;51.114;6.900;2022-07-23T04:46:44;101518.00;;;18.56
37452;BMP280;23314;51.114;6.900;2022-07-23T04:49:10;101524.94;;;18.67
37452;BMP280;23314;51.114;6.900;2022-07-23T04:51:35;101529.63;;;18.75
37452;BMP280;23314;51.114;6.900;2022-07-23T04:54:01;101534.16;;;18.79
37452;BMP280;23314;51.114;6.900;2022-07-23T04:56:26;101536.84;;;18.79
37452;BMP280;23314;51.114;6.900;2022-07-23T04:58:52;101535.50;;;18.74
37452;BMP280;23314;51.114;6.900;2022-07-23T05:01:18;101536.06;;;18.69
37452;BMP280;23314;51.114;6.900;2022-07-23T05:03:43;101536.94;;;18.66
37452;BMP280;23314;51.114;6.900;2022-07-23T05:06:08;101536.94;;;18.66
37452;BMP280;23314;51.114;6.900;2022-07-23T05:08:34;101538.44;;;18.67
37452;BMP280;23314;51.114;6.900;2022-07-23T05:10:59;101542.66;;;18.68
37452;BMP280;23314;51.114;6.900;2022-07-23T05:13:25;101550.47;;;18.66
37452;BMP280;23314;51.114;6.900;2022-07-23T05:15:50;101552.41;;;18.65
37452;BMP280;23314;51.114;6.900;2022-07-23T05:18:16;101554.03;;;18.63
37452;BMP280;23314;51.114;6.900;2022-07-23T05:20:42;101557.38;;;18.67
37452;BMP280;23314;51.114;6.900;2022-07-23T05:23:07;101554.72;;;18.76
37452;BMP280;23314;51.114;6.900;2022-07-23T05:25:32;101558.06;;;18.80
37452;BMP280;23314;51.114;6.900;2022-07-23T05:27:58;101562.13;;;18.85
37452;BMP280;23314;51.114;6.900;2022-07-23T05:30:23;101566.19;;;18.89
37452;BMP280;23314;51.114;6.900;2022-07-23T05:32:48;101568.00;;;18.92
37452;BMP280;23314;51.114;6.900;2022-07-23T05:35:14;101568.34;;;18.95
37452;BMP280;23314;51.114;6.900;2022-07-23T05:37:39;101563.69;;;18.95
37452;BMP280;23314;51.114;6.900;2022-07-23T05:40:06;101567.44;;;18.98
37452;BMP280;23314;51.114;6.900;2022-07-23T05:42:41;101568.81;;;19.02
37452;BMP280;23314;51.114;6.900;2022-07-23T05:45:10;101571.84;;;19.04
37452;BMP280;23314;51.114;6.900;2022-07-23T05:47:48;101568.69;;;19.06
37452;BMP280;23314;51.114;6.900;2022-07-23T05:50:14;101563.72;;;19.04
37452;BMP280;23314;51.114;6.900;2022-07-23T05:52:40;101560.88;;;19.08
37452;BMP280;23314;51.114;6.900;2022-07-23T05:55:07;101573.50;;;19.11
37452;BMP280;23314;51.114;6.900;2022-07-23T05:57:32;101577.72;;;19.12
37452;BMP280;23314;51.114;6.900;2022-07-23T05:59:58;101575.34;;;19.14
37452;BMP280;23314;51.114;6.900;2022-07-23T06:02:23;101579.53;;;19.15
37452;BMP280;23314;51.114;6.900;2022-07-23T06:04:50;101573.25;;;19.18
37452;BMP280;23314;51.114;6.900;2022-07-23T06:07:15;101578.50;;;19.22
37452;BMP280;23314;51.114;6.900;2022-07-23T06:09:40;101580.78;;;19.23
37452;BMP280;23314;51.114;6.900;2022-07-23T06:12:06;101581.50;;;19.24
37452;BMP280;23314;51.114;6.900;2022-07-23T06:14:31;101580.94;;;19.29
37452;BMP280;23314;51.114;6.900;2022-07-23T06:19:25;101582.47;;;19.39
37452;BMP280;23314;51.114;6.900;2022-07-23T06:21:50;101582.19;;;19.47
37452;BMP280;23314;51.114;6.900;2022-07-23T06:24:15;101570.94;;;19.57
37452;BMP280;23314;51.114;6.900;2022-07-23T06:26:41;101578.47;;;19.63
37452;BMP280;23314;51.114;6.900;2022-07-23T06:29:06;101586.78;;;19.68
37452;BMP280;23314;51.114;6.900;2022-07-23T06:31:32;101590.84;;;19.73
37452;BMP280;23314;51.114;6.900;2022-07-23T06:33:58;101586.63;;;19.81
37452;BMP280;23314;51.114;6.900;2022-07-23T06:36:23;101590.84;;;19.91
37452;BMP280;23314;51.114;6.900;2022-07-23T06:38:49;101585.75;;;20.03
37452;BMP280;23314;51.114;6.900;2022-07-23T06:41:14;101589.63;;;20.11
37452;BMP280;23314;51.114;6.900;2022-07-23T06:43:39;101591.59;;;20.10
37452;BMP280;23314;51.114;6.900;2022-07-23T06:46:05;101593.72;;;20.16
37452;BMP280;23314;51.114;6.900;2022-07-23T06:48:30;101593.41;;;20.23
37452;BMP280;23314;51.114;6.900;2022-07-23T06:50:55;101594.31;;;20.29
37452;BMP280;23314;51.114;6.900;2022-07-23T06:53:21;101593.25;;;20.36
37452;BMP280;23314;51.114;6.900;2022-07-23T06:55:46;101590.41;;;20.39
37452;BMP280;23314;51.114;6.900;2022-07-23T06:58:11;101587.78;;;20.45
37452;BMP280;23314;51.114;6.900;2022-07-23T07:00:39;101589.91;;;20.50
37452;BMP280;23314;51.114;6.900;2022-07-23T07:03:04;101594.28;;;20.57
37452;BMP280;23314;51.114;6.900;2022-07-23T07:05:30;101595.59;;;20.61
37452;BMP280;23314;51.114;6.900;2022-07-23T07:07:55;101598.75;;;20.69
37452;BMP280;23314;51.114;6.900;2022-07-23T07:10:21;101604.44;;;20.80
37452;BMP280;23314;51.114;6.900;2022-07-23T07:12:46;101600.53;;;20.81
37452;BMP280;23314;51.114;6.900;2022-07-23T07:15:11;101609.56;;;20.88
37452;BMP280;23314;51.114;6.900;2022-07-23T07:17:37;101601.66;;;20.99
37452;BMP280;23314;51.114;6.900;2022-07-23T07:20:03;101607.34;;;21.10
37452;BMP280;23314;51.114;6.900;2022-07-23T07:22:28;101607.59;;;21.22
37452;BMP280;23314;51.114;6.900;2022-07-23T07:24:53;101607.84;;;21.33
37452;BMP280;23314;51.114;6.900;2022-07-23T07:27:19;101612.56;;;21.47
37452;BMP280;23314;51.114;6.900;2022-07-23T07:29:44;101617.03;;;21.60
37452;BMP280;23314;51.114;6.900;2022-07-23T07:32:10;101610.91;;;21.74
37452;BMP280;23314;51.114;6.900;2022-07-23T07:34:35;101619.81;;;21.90
37452;BMP280;23314;51.114;6.900;2022-07-23T07:37:00;101617.53;;;22.12
37452;BMP280;23314;51.114;6.900;2022-07-23T07:39:25;101614.25;;;22.38
37452;BMP280;23314;51.114;6.900;2022-07-23T07:41:51;101627.00;;;22.47
37452;BMP280;23314;51.114;6.900;2022-07-23T07:44:16;101626.72;;;22.60
37452;BMP280;23314;51.114;6.900;2022-07-23T07:46:41;101627.28;;;22.79
37452;BMP280;23314;51.114;6.900;2022-07-23T07:49:07;101626.97;;;22.91
37452;BMP280;23314;51.114;6.900;2022-07-23T07:51:32;101622.72;;;23.05
37452;BMP280;23314;51.114;6.900;2022-07-23T07:53:58;101623.63;;;23.17
37452;BMP280;23314;51.114;6.900;2022-07-23T07:56:23;101629.81;;;23.18
37452;BMP280;23314;51.114;6.900;2022-07-23T07:58:48;101627.78;;;23.13
37452;BMP280;23314;51.114;6.900;2022-07-23T08:01:14;101631.09;;;23.22
37452;BMP280;23314;51.114;6.900;2022-07-23T08:03:39;101636.22;;;23.35
37452;BMP280;23314;51.114;6.900;2022-07-23T08:06:04;101633.50;;;23.35
37452;BMP280;23314;51.114;6.900;2022-07-23T08:08:30;101634.16;;;23.30
37452;BMP280;23314;51.114;6.900;2022-07-23T08:10:55;101643.06;;;23.31
37452;BMP280;23314;51.114;6.900;2022-07-23T08:13:20;101641.25;;;23.22
37452;BMP280;23314;51.114;6.900;2022-07-23T08:15:45;101643.56;;;23.29
37452;BMP280;23314;51.114;6.900;2022-07-23T08:18:11;101652.91;;;23.43
37452;BMP280;23314;51.114;6.900;2022-07-23T08:20:36;101644.34;;;23.50
37452;BMP280;23314;51.114;6.900;2022-07-23T08:23:07;101645.28;;;23.68
37452;BMP280;23314;51.114;6.900;2022-07-23T08:25:34;101644.66;;;23.78
37452;BMP280;23314;51.114;6.900;2022-07-23T08:28:02;101649.25;;;23.93
37452;BMP280;23314;51.114;6.900;2022-07-23T08:30:28;101650.47;;;24.12
37452;BMP280;23314;51.114;6.900;2022-07-23T08:32:56;101660.44;;;24.21
37452;BMP280;23314;51.114;6.900;2022-07-23T08:35:33;101657.19;;;24.17
37452;BMP280;23314;51.114;6.900;2022-07-23T08:38:00;101651.81;;;24.28
37452;BMP280;23314;51.114;6.900;2022-07-23T08:40:27;101649.50;;;24.47
37452;BMP280;23314;51.114;6.900;2022-07-23T08:42:53;101653.44;;;24.41
37452;BMP280;23314;51.114;6.900;2022-07-23T08:45:20;101657.59;;;24.36
37452;BMP280;23314;51.114;6.900;2022-07-23T08:47:57;101658.88;;;24.41
37452;BMP280;23314;51.114;6.900;2022-07-23T08:50:25;101656.91;;;24.41
37452;BMP280;23314;51.114;6.900;2022-07-23T08:52:52;101663.84;;;24.42
37452;BMP280;23314;51.114;6.900;2022-07-23T08:55:20;101662.28;;;24.36
37452;BMP280;23314;51.114;6.900;2022-07-23T08:57:48;101662.03;;;24.33
37452;BMP280;23314;51.114;6.900;2022-07-23T09:00:14;101661.41;;;24.50
37452;BMP280;23314;51.114;6.900;2022-07-23T09:02:44;101668.88;;;24.87
37452;BMP280;23314;51.114;6.900;2022-07-23T09:05:11;101676.16;;;25.01
37452;BMP280;23314;51.114;6.900;2022-07-23T09:07:37;101673.66;;;24.98
37452;BMP280;23314;51.114;6.900;2022-07-23T09:10:10;101666.81;;;25.14
37452;BMP280;23314;51.114;6.900;2022-07-23T09:12:36;101672.09;;;25.29
37452;BMP280;23314;51.114;6.900;2022-07-23T09:15:07;101668.59;;;25.28
37452;BMP280;23314;51.114;6.900;2022-07-23T09:17:40;101669.09;;;25.27
37452;BMP280;23314;51.114;6.900;2022-07-23T09:20:11;101666.09;;;25.19
37452;BMP280;23314;51.114;6.900;2022-07-23T09:22:36;101673.53;;;25.18
37452;BMP280;23314;51.114;6.900;2022-07-23T09:25:22;101665.31;;;25.18
37452;BMP280;23314;51.114;6.900;2022-07-23T09:27:51;101667.13;;;25.27
37452;BMP280;23314;51.114;6.900;2022-07-23T09:30:17;101664.69;;;25.40
37452;BMP280;23314;51.114;6.900;2022-07-23T09:32:43;101667.88;;;25.39
37452;BMP280;23314;51.114;6.900;2022-07-23T09:35:08;101673.28;;;25.22
37452;BMP280;23314;51.114;6.900;2022-07-23T09:37:34;101673.66;;;24.92
37452;BMP280;23314;51.114;6.900;2022-07-23T09:40:05;101683.00;;;24.85
37452;BMP280;23314;51.114;6.900;2022-07-23T09:42:31;101682.09;;;24.94
37452;BMP280;23314;51.114;6.900;2022-07-23T09:44:58;101682.91;;;25.06
37452;BMP280;23314;51.114;6.900;2022-07-23T09:47:25;101678.53;;;25.20
37452;BMP280;23314;51.114;6.900;2022-07-23T09:52:32;101678.56;;;25.37
37452;BMP280;23314;51.114;6.900;2022-07-23T09:54:59;101676.00;;;25.22
37452;BMP280;23314;51.114;6.900;2022-07-23T09:57:26;101686.44;;;25.18
37452;BMP280;23314;51.114;6.900;2022-07-23T09:59:52;101675.78;;;25.20
37452;BMP280;23314;51.114;6.900;2022-07-23T10:02:18;101669.56;;;25.19
37452;BMP280;23314;51.114;6.900;2022-07-23T10:04:43;101665.16;;;25.33
37452;BMP280;23314;51.114;6.900;2022-07-23T10:07:09;101679.34;;;25.43
37452;BMP280;23314;51.114;6.900;2022-07-23T10:09:38;101670.16;;;25.40
37452;BMP280;23314;51.114;6.900;2022-07-23T10:12:09;101665.94;;;25.39
37452;BMP280;23314;51.114;6.900;2022-07-23T10:14:47;101664.97;;;25.48
37452;BMP280;23314;51.114;6.900;2022-07-23T10:17:13;101674.41;;;25.53
37452;BMP280;23314;51.114;6.900;2022-07-23T10:19:39;101659.44;;;25.31
37452;BMP280;23314;51.114;6.900;2022-07-23T10:22:10;101660.59;;;25.13
37452;BMP280;23314;51.114;6.900;2022-07-23T10:36:08;101660.91;;;25.27
37452;BMP280;23314;51.114;6.900;2022-07-23T10:38:39;101655.19;;;25.25
37452;BMP280;23314;51.114;6.900;2022-07-23T10:41:07;101651.75;;;25.30
37452;BMP280;23314;51.114;6.900;2022-07-23T10:43:32;101650.53;;;25.36
37452;BMP280;23314;51.114;6.900;2022-07-23T10:46:33;101655.09;;;25.62
37452;BMP280;23314;51.114;6.900;2022-07-23T10:49:24;101639.72;;;25.76
37452;BMP280;23314;51.114;6.900;2022-07-23T10:52:18;101643.72;;;25.92
37452;BMP280;23314;51.114;6.900;2022-07-23T10:57:48;101640.22;;;26.20
37452;BMP280;23314;51.114;6.900;2022-07-23T11:00:15;101642.94;;;26.42
37452;BMP280;23314;51.114;6.900;2022-07-23T11:02:45;101643.91;;;26.56
37452;BMP280;23314;51.114;6.900;2022-07-23T11:05:15;101646.63;;;26.73
37452;BMP280;23314;51.114;6.900;2022-07-23T11:10:56;101640.06;;;26.99
37452;BMP280;23314;51.114;6.900;2022-07-23T11:18:54;101637.31;;;27.04
37452;BMP280;23314;51.114;6.900;2022-07-23T11:26:55;101633.84;;;27.04
37452;BMP280;23314;51.114;6.900;2022-07-23T11:34:41;101636.75;;;27.17
37452;BMP280;23314;51.114;6.900;2022-07-23T11:37:09;101646.44;;;27.24
37452;BMP280;23314;51.114;6.900;2022-07-23T11:39:34;101639.97;;;27.21
37452;BMP280;23314;51.114;6.900;2022-07-23T11:42:02;101631.53;;;27.14
37452;BMP280;23314;51.114;6.900;2022-07-23T11:44:32;101635.81;;;27.09
37452;BMP280;23314;51.114;6.900;2022-07-23T11:47:03;101624.34;;;27.11
37452;BMP280;23314;51.114;6.900;2022-07-23T11:49:29;101633.00;;;27.20
37452;BMP280;23314;51.114;6.900;2022-07-23T11:52:12;101630.72;;;27.30
37452;BMP280;23314;51.114;6.900;2022-07-23T11:54:48;101627.75;;;27.22
37452;BMP280;23314;51.114;6.900;2022-07-23T11:57:14;101631.28;;;27.17
37452;BMP280;23314;51.114;6.900;2022-07-23T11:59:39;101636.78;;;27.12
37452;BMP280;23314;51.114;6.900;2022-07-23T12:02:06;101629.00;;;27.21
37452;BMP280;23314;51.114;6.900;2022-07-23T12:04:38;101631.47;;;27.25
37452;BMP280;23314;51.114;6.900;2022-07-23T12:07:05;101640.19;;;27.29
37452;BMP280;23314;51.114;6.900;2022-07-23T12:09:47;101629.53;;;27.20
37452;BMP280;23314;51.114;6.900;2022-07-23T12:12:12;101626.81;;;27.14
37452;BMP280;23314;51.114;6.900;2022-07-23T12:14:47;101632.50;;;27.22
37452;BMP280;23314;51.114;6.900;2022-07-23T12:17:12;101635.25;;;27.22
37452;BMP280;23314;51.114;6.900;2022-07-23T12:19:38;101629.25;;;27.23
37452;BMP280;23314;51.114;6.900;2022-07-23T12:22:03;101622.00;;;27.32
37452;BMP280;23314;51.114;6.900;2022-07-23T12:24:29;101629.19;;;27.35
37452;BMP280;23314;51.114;6.900;2022-07-23T12:27:08;101614.22;;;27.41
37452;BMP280;23314;51.114;6.900;2022-07-23T12:29:35;101624.88;;;27.45
37452;BMP280;23314;51.114;6.900;2022-07-23T12:32:00;101623.34;;;27.55
37452;BMP280;23314;51.114;6.900;2022-07-23T12:34:25;101634.25;;;27.61
37452;BMP280;23314;51.114;6.900;2022-07-23T12:36:51;101626.34;;;27.52
37452;BMP280;23314;51.114;6.900;2022-07-23T12:39:30;101631.59;;;27.50
37452;BMP280;23314;51.114;6.900;2022-07-23T12:41:56;101636.25;;;27.60
37452;BMP280;23314;51.114;6.900;2022-07-23T12:44:21;101630.22;;;27.68
37452;BMP280;23314;51.114;6.900;2022-07-23T12:46:52;101636.09;;;27.83
37452;BMP280;23314;51.114;6.900;2022-07-23T12:49:27;101630.81;;;27.91
37452;BMP280;23314;51.114;6.900;2022-07-23T12:51:53;101635.41;;;28.07
37452;BMP280;23314;51.114;6.900;2022-07-23T12:54:27;101630.88;;;28.10
37452;BMP280;23314;51.114;6.900;2022-07-23T12:56:53;101633.69;;;28.29
37452;BMP280;23314;51.114;6.900;2022-07-23T12:59:18;101633.63;;;28.35
37452;BMP280;23314;51.114;6.900;2022-07-23T13:01:45;101632.75;;;28.26
37452;BMP280;23314;51.114;6.900;2022-07-23T13:04:22;101637.94;;;28.30
37452;BMP280;23314;51.114;6.900;2022-07-23T13:06:49;101643.19;;;28.28
37452;BMP280;23314;51.114;6.900;2022-07-23T13:09:17;101638.91;;;28.32
37452;BMP280;23314;51.114;6.900;2022-07-23T13:11:43;101640.91;;;28.32
37452;BMP280;23314;51.114;6.900;2022-07-23T13:14:10;101654.16;;;28.28
37452;BMP280;23314;51.114;6.900;2022-07-23T13:16:37;101653.72;;;28.24
37452;BMP280;23314;51.114;6.900;2022-07-23T13:19:02;101652.72;;;28.21
37452;BMP280;23314;51.114;6.900;2022-07-23T13:21:28;101647.00;;;28.19
37452;BMP280;23314;51.114;6.900;2022-07-23T13:23:54;101635.56;;;28.15
37452;BMP280;23314;51.114;6.900;2022-07-23T13:26:20;101649.47;;;28.23
37452;BMP280;23314;51.114;6.900;2022-07-23T13:28:46;101645.59;;;28.12
37452;BMP280;23314;51.114;6.900;2022-07-23T13:31:12;101641.59;;;28.13
37452;BMP280;23314;51.114;6.900;2022-07-23T13:33:37;101650.59;;;28.08
37452;BMP280;23314;51.114;6.900;2022-07-23T13:36:03;101632.66;;;28.07
37452;BMP280;23314;51.114;6.900;2022-07-23T13:38:29;101634.88;;;28.09
37452;BMP280;23314;51.114;6.900;2022-07-23T13:40:54;101631.88;;;28.12
37452;BMP280;23314;51.114;6.900;2022-07-23T13:43:22;101635.34;;;28.13
37452;BMP280;23314;51.114;6.900;2022-07-23T13:45:48;101629.13;;;28.12
37452;BMP280;23314;51.114;6.900;2022-07-23T13:48:15;101627.09;;;28.13
37452;BMP280;23314;51.114;6.900;2022-07-23T13:50:41;101618.22;;;28.07
37452;BMP280;23314;51.114;6.900;2022-07-23T13:53:10;101625.47;;;28.04
37452;BMP280;23314;51.114;6.900;2022-07-23T13:55:37;101618.81;;;27.94
37452;BMP280;23314;51.114;6.900;2022-07-23T13:58:03;101609.59;;;27.91
37452;BMP280;23314;51.114;6.900;2022-07-23T14:00:29;101615.25;;;27.99
37452;BMP280;23314;51.114;6.900;2022-07-23T14:02:56;101614.78;;;28.01
37452;BMP280;23314;51.114;6.900;2022-07-23T14:05:21;101618.25;;;28.01
37452;BMP280;23314;51.114;6.900;2022-07-23T14:07:47;101617.75;;;28.03
37452;BMP280;23314;51.114;6.900;2022-07-23T14:10:16;101606.59;;;27.95
37452;BMP280;23314;51.114;6.900;2022-07-23T14:12:42;101608.31;;;27.98
37452;BMP280;23314;51.114;6.900;2022-07-23T14:15:07;101608.75;;;28.02
37452;BMP280;23314;51.114;6.900;2022-07-23T14:17:35;101605.97;;;28.08
37452;BMP280;23314;51.114;6.900;2022-07-23T14:20:01;101612.16;;;28.14
37452;BMP280;23314;51.114;6.900;2022-07-23T14:22:26;101617.34;;;28.18
37452;BMP280;23314;51.114;6.900;2022-07-23T14:24:52;101607.81;;;28.24
37452;BMP280;23314;51.114;6.900;2022-07-23T14:27:17;101617.53;;;28.25
37452;BMP280;23314;51.114;6.900;2022-07-23T14:29:43;101620.06;;;28.23
37452;BMP280;23314;51.114;6.900;2022-07-23T14:32:08;101620.28;;;28.25